Time;durP1;ratioP1;P1;durP2;ratioP2;P2;SDS_P1;SDS_P2;PMS_P1;PMS_P2;Temp;Humidity;BMP_temperature;BMP_pressure;BME280_temperature;BME280_humidity;BME280_pressure;Samples;Min_cycle;Max_cycle;Signal;HPM_P1;HPM_P2
2022/12/16 00:00:14;;;;;;;;;;;;;;;14.60;54.00;101167.69;2100032;28;20485;-75
2022/12/16 00:01:17;;;;;;;;;;;;;;;14.60;53.76;101164.22;2098344;28;20295;-76
2022/12/16 00:02:19;;;;;;;;;;;;;;;14.60;53.76;101164.97;2100522;28;19928;-74
2022/12/16 00:03:21;;;;;;;;;;;;;;;14.60;53.92;101164.97;2098207;28;20558;-77
2022/12/16 00:04:24;;;;;;;;;;;;;;;14.60;53.71;101170.41;2100364;28;19924;-74
2022/12/16 00:05:26;;;;;;;;;;;;;;;14.60;53.69;101169.66;2098930;28;19932;-75
2022/12/16 00:06:29;;;;;;;;;;;;;;;14.60;53.88;101172.38;2098700;28;19924;-75
2022/12/16 00:07:31;;;;;;;;;;;;;;;14.60;53.85;101166.94;2096621;28;19939;-76
2022/12/16 00:08:35;;;;;;;;;;;;;;;14.59;53.62;101168.84;2099662;28;20541;-77
2022/12/16 00:09:36;;;;;;;;;;;;;;;14.60;53.66;101166.94;2098484;28;19929;-76
2022/12/16 00:10:52;;;;;;;;;;;;;;;14.59;53.58;101168.06;2098465;28;20366;-74
2022/12/16 00:11:56;;;;;;;;;;;;;;;14.59;53.90;101170.78;2098053;28;20073;-75
2022/12/16 00:12:59;;;;;;;;;;;;;;;14.59;53.91;101168.06;2098938;28;19940;-76
2022/12/16 00:14:03;;;;;;;;;;;;;;;14.59;53.66;101162.63;2099110;28;19968;-76
2022/12/16 00:15:06;;;;;;;;;;;;;;;14.58;53.68;101166.50;2097029;28;19932;-70
2022/12/16 00:16:09;;;;;;;;;;;;;;;14.59;53.82;101173.50;2089831;28;20027;-74
2022/12/16 00:17:12;;;;;;;;;;;;;;;14.58;53.88;101161.06;2089622;28;19944;-75
2022/12/16 00:18:14;;;;;;;;;;;;;;;14.58;53.78;101158.34;2098500;28;19929;-73
2022/12/16 00:19:16;;;;;;;;;;;;;;;14.58;53.92;101166.50;2090311;28;20316;-77
2022/12/16 00:20:20;;;;;;;;;;;;;;;14.58;53.47;101150.19;2088253;28;19925;-74
2022/12/16 00:21:27;;;;;;;;;;;;;;;14.57;53.40;101164.94;2092600;28;19971;-76
2022/12/16 00:22:29;;;;;;;;;;;;;;;14.57;53.88;101154.06;2091856;28;19975;-73
2022/12/16 00:23:32;;;;;;;;;;;;;;;14.57;53.66;101160.25;2090468;28;20148;-77
2022/12/16 00:24:34;;;;;;;;;;;;;;;14.57;53.66;101154.06;2090223;28;19928;-71
2022/12/16 00:25:37;;;;;;;;;;;;;;;14.57;53.60;101154.06;2098626;28;20017;-74
2022/12/16 00:26:38;;;;;;;;;;;;;;;14.57;53.66;101154.06;2097578;28;19935;-75
2022/12/16 00:27:44;;;;;;;;;;;;;;;14.56;53.86;101160.63;2098289;28;19932;-72
2022/12/16 00:28:45;;;;;;;;;;;;;;;14.57;53.78;101164.94;2096934;28;19943;-77
2022/12/16 00:29:48;;;;;;;;;;;;;;;14.55;53.51;101159.84;2098360;28;19937;-76
2022/12/16 00:30:50;;;;;;;;;;;;;;;14.55;53.71;101161.78;2097792;28;19935;-73
2022/12/16 00:31:53;;;;;;;;;;;;;;;14.56;53.70;101166.06;2099619;28;19924;-77
2022/12/16 00:32:57;;;;;;;;;;;;;;;14.56;53.54;101152.47;2099482;28;20007;-77
2022/12/16 00:34:00;;;;;;;;;;;;;;;14.56;53.82;101160.63;2098435;28;20256;-74
2022/12/16 00:35:02;;;;;;;;;;;;;;;14.55;53.66;101156.34;2097815;28;19929;-78
2022/12/16 00:36:05;;;;;;;;;;;;;;;14.55;53.88;101150.91;2097676;28;19939;-71
2022/12/16 00:37:06;;;;;;;;;;;;;;;14.54;54.02;101160.97;2098765;28;19932;-77
2022/12/16 00:38:09;;;;;;;;;;;;;;;14.55;53.77;101153.63;2096728;28;19924;-74
2022/12/16 00:39:11;;;;;;;;;;;;;;;14.53;53.59;101159.44;2088633;28;19929;-76
2022/12/16 00:40:13;;;;;;;;;;;;;;;14.54;53.39;101166.41;2088484;28;19940;-77
2022/12/16 00:41:15;;;;;;;;;;;;;;;14.54;53.59;101165.66;2099965;28;19932;-77
2022/12/16 00:42:17;;;;;;;;;;;;;;;14.53;53.49;101164.84;2098876;28;19928;-74
2022/12/16 00:43:21;;;;;;;;;;;;;;;14.53;53.61;101164.06;2097695;28;20631;-76
2022/12/16 00:44:23;;;;;;;;;;;;;;;14.54;53.90;101176.53;2098089;28;20546;-78
2022/12/16 00:45:25;;;;;;;;;;;;;;;14.54;53.86;101173.81;2088452;28;19940;-69
2022/12/16 00:46:27;;;;;;;;;;;;;;;14.54;53.74;101171.09;2090776;28;19933;-76
2022/12/16 00:47:29;;;;;;;;;;;;;;;14.53;53.81;101164.84;2089679;28;19940;-74
2022/12/16 00:48:32;;;;;;;;;;;;;;;14.53;53.58;101175.72;2089884;28;20335;-77
2022/12/16 00:49:33;;;;;;;;;;;;;;;14.53;53.54;101170.28;2096946;28;20371;-75
2022/12/16 00:50:36;;;;;;;;;;;;;;;14.52;53.74;101184.25;2098839;28;19932;-74
2022/12/16 00:51:37;;;;;;;;;;;;;;;14.51;53.63;101177.22;2099445;28;19931;-77
2022/12/16 00:52:40;;;;;;;;;;;;;;;14.53;53.67;101180.38;2099522;28;20576;-76
2022/12/16 00:53:41;;;;;;;;;;;;;;;14.52;53.43;101178.81;2099408;28;19928;-77
2022/12/16 00:54:44;;;;;;;;;;;;;;;14.51;53.70;101174.50;2098352;28;19936;-75
2022/12/16 00:55:46;;;;;;;;;;;;;;;14.52;53.73;101176.09;2097367;28;19939;-74
2022/12/16 00:56:48;;;;;;;;;;;;;;;14.52;53.79;101178.81;2099026;28;19955;-74
2022/12/16 00:57:50;;;;;;;;;;;;;;;14.50;53.76;101171.00;2099202;28;19928;-75
2022/12/16 00:58:54;;;;;;;;;;;;;;;14.50;53.63;101171.00;2096703;28;20067;-77
2022/12/16 00:59:55;;;;;;;;;;;;;;;14.51;54.03;101175.28;2087334;28;19977;-77
2022/12/16 01:00:58;;;;;;;;;;;;;;;14.51;53.88;101171.78;2083504;28;20464;-76
2022/12/16 01:02:01;;;;;;;;;;;;;;;14.51;53.85;101169.06;2085911;28;20372;-76
2022/12/16 01:03:03;;;;;;;;;;;;;;;14.50;53.82;101173.72;2091734;28;20949;-77
2022/12/16 01:04:06;;;;;;;;;;;;;;;14.50;53.77;101172.94;2097960;28;19932;-74
2022/12/16 01:05:08;;;;;;;;;;;;;;;14.49;53.68;101176.81;2097357;28;20295;-73
2022/12/16 01:06:12;;;;;;;;;;;;;;;14.50;53.75;101175.66;2096844;28;19928;-71
2022/12/16 01:07:13;;;;;;;;;;;;;;;14.50;53.52;101178.38;2098976;28;19932;-73
2022/12/16 01:08:16;;;;;;;;;;;;;;;14.49;53.73;101185.72;2098458;28;20001;-72
2022/12/16 01:09:18;;;;;;;;;;;;;;;14.50;53.69;101186.50;2100542;28;19931;-73
2022/12/16 01:10:20;;;;;;;;;;;;;;;14.50;53.54;101191.94;2100751;28;19932;-69
2022/12/16 01:11:22;;;;;;;;;;;;;;;14.49;53.55;101193.09;2099111;28;19946;-74
2022/12/16 01:12:25;;;;;;;;;;;;;;;14.49;53.59;101190.38;2098998;28;21373;-69
2022/12/16 01:13:26;;;;;;;;;;;;;;;14.46;53.44;101191.88;2098850;28;20314;-76
2022/12/16 01:14:30;;;;;;;;;;;;;;;14.49;53.71;101195.81;2097632;28;19932;-74
2022/12/16 01:15:32;;;;;;;;;;;;;;;14.47;53.45;101190.75;2099935;28;19924;-77
2022/12/16 01:16:35;;;;;;;;;;;;;;;14.46;53.52;101189.16;2097067;28;20378;-68
2022/12/16 01:17:37;;;;;;;;;;;;;;;14.47;53.45;101192.66;2097102;28;19940;-75
2022/12/16 01:18:39;;;;;;;;;;;;;;;14.46;53.72;101191.88;2097707;28;19924;-76
2022/12/16 01:19:41;;;;;;;;;;;;;;;14.47;53.81;101192.66;2100019;28;19951;-74
2022/12/16 01:20:43;;;;;;;;;;;;;;;14.48;53.43;101196.94;2097630;28;19924;-76
2022/12/16 01:21:45;;;;;;;;;;;;;;;14.46;53.79;101191.88;2098980;28;20303;-68
2022/12/16 01:22:48;;;;;;;;;;;;;;;14.46;53.47;101191.09;2098017;28;19932;-75
2022/12/16 01:23:50;;;;;;;;;;;;;;;14.46;53.31;101185.66;2098999;28;20429;-73
2022/12/16 01:24:52;;;;;;;;;;;;;;;14.45;53.60;101184.88;2098993;28;20379;-76
2022/12/16 01:25:56;;;;;;;;;;;;;;;14.45;53.38;101189.50;2098107;28;19928;-74
2022/12/16 01:26:59;;;;;;;;;;;;;;;14.46;53.60;101199.25;2088417;28;19931;-76
2022/12/16 01:28:01;;;;;;;;;;;;;;;14.46;53.61;101196.53;2087706;28;19935;-72
2022/12/16 01:29:03;;;;;;;;;;;;;;;14.46;53.56;101191.09;2099624;28;19924;-76
2022/12/16 01:30:08;;;;;;;;;;;;;;;14.46;53.46;101199.25;2099194;28;19943;-75
2022/12/16 01:31:11;;;;;;;;;;;;;;;14.45;53.60;101190.31;2099237;28;20268;-74
2022/12/16 01:32:13;;;;;;;;;;;;;;;14.45;53.51;101198.47;2099758;28;19939;-76
2022/12/16 01:33:16;;;;;;;;;;;;;;;14.44;53.98;101193.38;2098118;28;19936;-76
2022/12/16 01:34:18;;;;;;;;;;;;;;;14.44;53.51;101194.19;2099288;28;19928;-73
2022/12/16 01:35:20;;;;;;;;;;;;;;;14.44;53.38;101199.63;2097207;28;19928;-75
2022/12/16 01:36:43;;;;;;;;;;;;;;;14.44;53.86;101199.63;2096482;28;20011;-76
2022/12/16 01:37:45;;;;;;;;;;;;;;;14.44;53.65;101206.97;2095388;28;20387;-73
2022/12/16 01:38:47;;;;;;;;;;;;;;;14.44;53.36;101215.13;2097796;28;19939;-72
2022/12/16 01:39:49;;;;;;;;;;;;;;;14.43;53.83;101208.13;2088858;28;19933;-73
2022/12/16 01:40:52;;;;;;;;;;;;;;;14.44;53.44;101215.13;2091585;28;20398;-72
2022/12/16 01:41:55;;;;;;;;;;;;;;;14.43;53.74;101219.75;2099562;28;20078;-73
2022/12/16 01:42:58;;;;;;;;;;;;;;;14.43;53.64;101225.19;2097397;28;19929;-76
2022/12/16 01:44:12;;;;;;;;;;;;;;;14.43;53.41;101227.13;2096994;28;19935;-74
2022/12/16 01:45:28;;;;;;;;;;;;;;;14.42;53.40;101223.63;2096007;28;19928;-74
2022/12/16 01:46:30;;;;;;;;;;;;;;;14.42;53.53;101223.63;2099025;28;19928;-74
2022/12/16 01:47:33;;;;;;;;;;;;;;;14.43;53.51;101232.56;2099749;28;19928;-75
2022/12/16 01:48:38;;;;;;;;;;;;;;;14.42;53.35;101228.25;2098613;28;19928;-76
2022/12/16 01:49:42;;;;;;;;;;;;;;;14.42;53.30;101228.25;2097928;28;19966;-68
2022/12/16 01:50:44;;;;;;;;;;;;;;;14.42;53.65;101233.69;2099074;28;20008;-75
2022/12/16 01:51:47;;;;;;;;;;;;;;;14.41;53.37;101222.03;2099539;28;19932;-75
2022/12/16 01:52:58;;;;;;;;;;;;;;;14.41;53.63;101229.41;2098991;28;20011;-76
2022/12/16 01:54:04;;;;;;;;;;;;;;;14.41;53.52;101230.19;2097399;28;19928;-76
2022/12/16 01:55:08;;;;;;;;;;;;;;;14.41;53.68;101232.13;2098370;28;19932;-70
2022/12/16 01:56:12;;;;;;;;;;;;;;;14.41;53.26;101232.13;2096703;28;19935;-75
2022/12/16 01:57:16;;;;;;;;;;;;;;;14.41;53.44;101232.91;2099204;28;19936;-74
2022/12/16 01:58:21;;;;;;;;;;;;;;;14.40;53.59;101230.53;2099250;28;19935;-73
2022/12/16 01:59:24;;;;;;;;;;;;;;;14.40;53.64;101238.69;2098526;28;19928;-76
2022/12/16 02:00:28;;;;;;;;;;;;;;;14.40;53.74;101227.81;2099580;28;19932;-72
2022/12/16 02:01:30;;;;;;;;;;;;;;;14.40;53.69;101230.53;2097808;28;20505;-77
2022/12/16 02:02:32;;;;;;;;;;;;;;;14.39;53.42;101235.22;2098350;28;20015;-75
2022/12/16 02:03:35;;;;;;;;;;;;;;;14.40;53.38;101233.25;2090542;28;20978;-77
2022/12/16 02:05:19;;;;;;;;;;;;;;;14.39;53.66;101229.78;2089608;28;19929;-72
2022/12/16 02:06:01;;;;;;;;;;;;;;;14.39;53.61;101232.50;2096853;28;19928;-76
2022/12/16 02:07:04;;;;;;;;;;;;;;;14.39;53.49;101232.50;2099060;28;19925;-77
2022/12/16 02:08:09;;;;;;;;;;;;;;;14.38;53.46;101233.63;2098961;28;19925;-73
2022/12/16 02:09:14;;;;;;;;;;;;;;;14.39;53.54;101239.84;2098835;28;20518;-74
2022/12/16 02:10:15;;;;;;;;;;;;;;;14.38;53.54;101233.63;2099404;28;19929;-76
2022/12/16 02:11:27;;;;;;;;;;;;;;;14.38;53.65;101230.13;2099198;28;19928;-76
2022/12/16 02:12:39;;;;;;;;;;;;;;;14.38;53.68;101244.47;2097660;28;19936;-74
2022/12/16 02:13:49;;;;;;;;;;;;;;;14.38;53.34;101235.56;2097523;28;19935;-76
2022/12/16 02:15:12;;;;;;;;;;;;;;;14.38;53.44;101239.06;2098411;28;19997;-76
2022/12/16 02:16:18;;;;;;;;;;;;;;;14.38;53.30;101238.28;2095732;28;20590;-76
2022/12/16 02:17:24;;;;;;;;;;;;;;;14.38;53.17;101235.56;2099511;28;20027;-77
2022/12/16 02:18:32;;;;;;;;;;;;;;;14.37;53.56;101239.41;2098655;28;19932;-72
2022/12/16 02:19:47;;;;;;;;;;;;;;;14.38;53.66;101243.72;2099358;28;19929;-74
2022/12/16 02:21:04;;;;;;;;;;;;;;;14.37;53.63;101236.69;2098828;28;19975;-74
2022/12/16 02:22:15;;;;;;;;;;;;;;;14.36;53.43;101235.94;2100188;28;20028;-76
2022/12/16 02:23:33;;;;;;;;;;;;;;;14.36;53.45;101241.34;2099183;28;19939;-74
2022/12/16 02:24:44;;;;;;;;;;;;;;;14.36;53.54;101246.78;2093739;28;20394;-74
2022/12/16 02:26:00;;;;;;;;;;;;;;;14.36;53.20;101246.78;2084127;28;19933;-74
2022/12/16 02:27:16;;;;;;;;;;;;;;;14.36;53.15;101241.34;2091506;28;20383;-73
2022/12/16 02:28:29;;;;;;;;;;;;;;;14.35;53.57;101245.19;2099176;28;20050;-75
2022/12/16 02:29:44;;;;;;;;;;;;;;;14.35;53.37;101244.44;2102318;28;19935;-75
2022/12/16 02:31:11;;;;;;;;;;;;;;;14.35;53.49;101242.47;2099731;28;19932;-77
2022/12/16 02:32:17;;;;;;;;;;;;;;;14.35;53.29;101241.72;2100195;28;19972;-74
2022/12/16 02:33:35;;;;;;;;;;;;;;;14.35;53.34;101249.88;2098203;28;19936;-77
2022/12/16 02:35:04;;;;;;;;;;;;;;;14.34;53.35;101248.28;2099346;28;19929;-77
2022/12/16 02:36:10;;;;;;;;;;;;;;;14.34;53.26;101249.06;2078291;28;19924;-72
2022/12/16 02:37:14;;;;;;;;;;;;;;;14.35;53.57;101249.88;2099815;28;19978;-74
2022/12/16 02:38:20;;;;;;;;;;;;;;;14.35;53.48;101255.28;2099779;28;19935;-72
2022/12/16 02:39:25;;;;;;;;;;;;;;;14.33;53.30;101255.66;2099515;28;20368;-77
2022/12/16 02:40:31;;;;;;;;;;;;;;;14.34;53.57;101253.69;2099029;28;19950;-76
2022/12/16 02:41:44;;;;;;;;;;;;;;;14.33;53.67;101252.94;2101144;28;19924;-79
2022/12/16 02:42:49;;;;;;;;;;;;;;;14.33;53.61;101252.94;2100200;28;19932;-71
2022/12/16 02:43:53;;;;;;;;;;;;;;;14.34;53.29;101248.28;2098727;28;20410;-74
2022/12/16 02:44:59;;;;;;;;;;;;;;;14.34;53.40;101259.13;2099966;28;19932;-75
2022/12/16 02:46:03;;;;;;;;;;;;;;;14.33;53.71;101249.44;2098178;28;19932;-74
2022/12/16 02:47:07;;;;;;;;;;;;;;;14.33;53.73;101252.13;2100532;28;20019;-74
2022/12/16 02:48:10;;;;;;;;;;;;;;;14.33;53.17;101257.56;2098863;28;19936;-75
2022/12/16 02:49:28;;;;;;;;;;;;;;;14.32;53.52;101254.06;2100086;28;19924;-76
2022/12/16 02:50:32;;;;;;;;;;;;;;;14.33;53.23;101263.00;2098747;28;19989;-74
2022/12/16 02:51:37;;;;;;;;;;;;;;;14.31;53.34;101260.66;2100968;28;20036;-73
2022/12/16 02:52:38;;;;;;;;;;;;;;;14.31;53.54;101257.94;2098690;28;19973;-74
2022/12/16 02:53:42;;;;;;;;;;;;;;;14.32;53.34;101258.69;2099889;28;19928;-76
2022/12/16 02:54:44;;;;;;;;;;;;;;;14.32;53.51;101258.69;2100899;28;20469;-76
2022/12/16 02:55:51;;;;;;;;;;;;;;;14.32;53.36;101269.56;2099760;28;19963;-73
2022/12/16 02:56:58;;;;;;;;;;;;;;;14.30;53.44;101264.47;2098237;28;20341;-73
2022/12/16 02:58:10;;;;;;;;;;;;;;;14.30;53.39;101263.72;2098743;28;19932;-76
2022/12/16 02:59:16;;;;;;;;;;;;;;;14.32;53.55;101272.28;2099600;28;19973;-75
2022/12/16 03:00:20;;;;;;;;;;;;;;;14.30;53.21;101274.59;2100447;28;19931;-75
2022/12/16 03:01:25;;;;;;;;;;;;;;;14.31;53.29;101270.72;2098772;28;19928;-75
2022/12/16 03:02:33;;;;;;;;;;;;;;;14.30;53.35;101280.78;2090098;28;20028;-75
2022/12/16 03:03:39;;;;;;;;;;;;;;;14.29;53.58;101273.78;2092395;28;20392;-76
2022/12/16 03:04:48;;;;;;;;;;;;;;;14.30;53.20;101275.34;2091430;28;19928;-76
2022/12/16 03:05:51;;;;;;;;;;;;;;;14.30;53.17;101274.59;2083949;28;20000;-75
2022/12/16 03:06:55;;;;;;;;;;;;;;;14.29;53.51;101276.50;2091239;28;19947;-76
2022/12/16 03:07:58;;;;;;;;;;;;;;;14.29;53.23;101278.41;2100578;28;19935;-76
2022/12/16 03:09:04;;;;;;;;;;;;;;;14.30;53.45;101266.44;2098926;28;19940;-76
2022/12/16 03:10:07;;;;;;;;;;;;;;;14.29;53.84;101262.91;2098644;28;19933;-75
2022/12/16 03:11:10;;;;;;;;;;;;;;;14.29;53.66;101268.34;2098266;28;20378;-72
2022/12/16 03:12:15;;;;;;;;;;;;;;;14.29;53.57;101264.84;2101361;28;19931;-75
2022/12/16 03:13:18;;;;;;;;;;;;;;;14.29;53.43;101278.41;2100296;28;19932;-76
2022/12/16 03:14:22;;;;;;;;;;;;;;;14.29;53.04;101273.00;2097596;28;19940;-76
2022/12/16 03:15:27;;;;;;;;;;;;;;;14.29;53.28;101278.41;2100080;28;20404;-71
2022/12/16 03:16:30;;;;;;;;;;;;;;;14.28;53.40;101276.84;2100133;28;19981;-74
2022/12/16 03:17:35;;;;;;;;;;;;;;;14.27;53.04;101270.63;2098177;28;19928;-76
2022/12/16 03:18:39;;;;;;;;;;;;;;;14.28;53.61;101280.38;2098861;28;19929;-76
2022/12/16 03:19:45;;;;;;;;;;;;;;;14.27;53.36;101278.00;2100671;28;19928;-77
2022/12/16 03:20:49;;;;;;;;;;;;;;;14.27;53.51;101275.28;2097898;28;19941;-72
2022/12/16 03:21:54;;;;;;;;;;;;;;;14.28;53.61;101285.00;2100291;28;20006;-77
2022/12/16 03:22:58;;;;;;;;;;;;;;;14.26;53.22;101277.22;2098680;28;20518;-76
2022/12/16 03:24:02;;;;;;;;;;;;;;;14.27;53.46;101275.28;2099203;28;19929;-75
2022/12/16 03:25:05;;;;;;;;;;;;;;;14.27;53.57;101275.28;2097823;28;20379;-75
2022/12/16 03:26:10;;;;;;;;;;;;;;;14.28;52.97;101279.56;2100455;28;19932;-72
2022/12/16 03:27:17;;;;;;;;;;;;;;;14.26;53.48;101281.84;2091037;28;20419;-75
2022/12/16 03:28:26;;;;;;;;;;;;;;;14.26;53.09;101273.69;2093543;28;19928;-74
2022/12/16 03:29:34;;;;;;;;;;;;;;;14.26;53.12;101279.13;2099462;28;19924;-72
2022/12/16 03:30:40;;;;;;;;;;;;;;;14.26;53.09;101282.66;2101387;28;19972;-75
2022/12/16 03:31:45;;;;;;;;;;;;;;;14.25;53.53;101280.28;2091423;28;19970;-74
2022/12/16 03:32:52;;;;;;;;;;;;;;;14.25;53.21;101283.78;2092533;28;19936;-75
2022/12/16 03:33:56;;;;;;;;;;;;;;;14.25;53.20;101278.38;2101361;28;19924;-65
2022/12/16 03:35:01;;;;;;;;;;;;;;;14.24;53.20;101276.78;2099778;28;19925;-64
2022/12/16 03:36:08;;;;;;;;;;;;;;;14.25;53.49;101283.78;2097733;28;19932;-65
2022/12/16 03:37:12;;;;;;;;;;;;;;;14.25;53.20;101283.00;2098940;28;19928;-65
2022/12/16 03:38:14;;;;;;;;;;;;;;;14.24;53.12;101273.25;2100217;28;20714;-65
2022/12/16 03:39:18;;;;;;;;;;;;;;;14.24;53.44;101282.19;2091353;28;19928;-64
2022/12/16 03:40:21;;;;;;;;;;;;;;;14.24;53.23;101275.97;2090724;28;20020;-65
2022/12/16 03:41:25;;;;;;;;;;;;;;;14.24;53.29;101281.41;2098735;28;19939;-65
2022/12/16 03:42:28;;;;;;;;;;;;;;;14.24;53.52;101284.13;2099701;28;20489;-65
2022/12/16 03:43:32;;;;;;;;;;;;;;;14.23;53.33;101291.47;2101005;28;19977;-65
2022/12/16 03:44:35;;;;;;;;;;;;;;;14.24;53.47;101289.56;2099663;28;20549;-65
2022/12/16 03:45:39;;;;;;;;;;;;;;;14.23;53.12;101279.81;2098564;28;19928;-64
2022/12/16 03:46:42;;;;;;;;;;;;;;;14.23;53.54;101287.97;2098677;28;20997;-64
2022/12/16 03:47:48;;;;;;;;;;;;;;;14.23;53.22;101285.25;2098749;28;19924;-65
2022/12/16 03:48:51;;;;;;;;;;;;;;;14.23;53.46;101290.69;2098067;28;20388;-64
2022/12/16 03:49:53;;;;;;;;;;;;;;;14.22;53.44;101284.44;2098827;28;19928;-64
2022/12/16 03:50:56;;;;;;;;;;;;;;;14.22;53.51;101279.00;2099336;28;20463;-64
2022/12/16 03:51:57;;;;;;;;;;;;;;;14.22;53.21;101286.41;2099819;28;19933;-64
2022/12/16 03:53:00;;;;;;;;;;;;;;;14.22;53.57;101289.09;2098238;28;19928;-64
2022/12/16 03:54:02;;;;;;;;;;;;;;;14.22;52.93;101295.31;2091543;28;19933;-64
2022/12/16 03:55:04;;;;;;;;;;;;;;;14.22;53.53;101294.53;2093059;28;19925;-64
2022/12/16 03:56:06;;;;;;;;;;;;;;;14.22;53.19;101295.31;2096938;28;20386;-65
2022/12/16 03:57:09;;;;;;;;;;;;;;;14.22;53.39;101299.97;2099321;28;19971;-65
2022/12/16 03:58:15;;;;;;;;;;;;;;;14.21;53.49;101298.38;2098652;28;19932;-65
2022/12/16 03:59:18;;;;;;;;;;;;;;;14.21;53.45;101299.19;2098936;28;20581;-64
2022/12/16 04:00:20;;;;;;;;;;;;;;;14.20;53.33;101300.31;2099387;28;20021;-65
2022/12/16 04:01:23;;;;;;;;;;;;;;;14.21;53.56;101292.94;2098020;28;19940;-65
2022/12/16 04:02:24;;;;;;;;;;;;;;;14.20;53.05;101297.63;2098774;28;19928;-64
2022/12/16 04:03:28;;;;;;;;;;;;;;;14.20;53.51;101294.09;2098536;28;19932;-65
2022/12/16 04:04:31;;;;;;;;;;;;;;;14.21;53.08;101298.38;2090187;28;19933;-64
2022/12/16 04:05:33;;;;;;;;;;;;;;;14.20;53.09;101296.81;2090724;28;19924;-64
2022/12/16 04:06:35;;;;;;;;;;;;;;;14.20;53.34;101299.53;2099234;28;20313;-68
2022/12/16 04:07:37;;;;;;;;;;;;;;;14.20;53.26;101300.31;2083111;28;19939;-65
2022/12/16 04:08:39;;;;;;;;;;;;;;;14.20;53.57;101302.25;2083952;28;19932;-65
2022/12/16 04:09:42;;;;;;;;;;;;;;;14.19;53.42;101306.13;2097961;28;20402;-65
2022/12/16 04:24:19;;;;;;;;;;;;;;;14.16;53.39;101315.75;2097573;28;19924;-65
2022/12/16 04:25:22;;;;;;;;;;;;;;;14.16;53.44;101312.25;2097601;28;19935;-65
2022/12/16 04:26:24;;;;;;;;;;;;;;;14.16;53.17;101307.59;2098794;28;19936;-65
2022/12/16 04:27:26;;;;;;;;;;;;;;;14.16;53.08;101317.69;2097245;28;19928;-65
2022/12/16 04:28:29;;;;;;;;;;;;;;;14.16;53.39;101323.13;2097982;28;20027;-64
2022/12/16 04:29:31;;;;;;;;;;;;;;;14.16;53.44;101317.69;2099737;28;19928;-65
2022/12/16 04:30:34;;;;;;;;;;;;;;;14.15;52.97;101316.88;2099536;28;19932;-65
2022/12/16 04:31:36;;;;;;;;;;;;;;;14.15;53.35;101321.53;2099723;28;19945;-65
